Skip to Main Content
SEARCH:
Location Air RH Dwp Precip Type Wind Speed Wind Gust Direction Pavement Temperature Date/Time
Hatem Bridge US 40 E/B 47 62 35 None 11 mph 12 mph SE 51 - 51 3/30/2017 6:25:00 PM
I-270 at I-370 51 54 35 None Calm 6 mph SE 57 - 60 3/30/2017 6:20:00 PM
I-270 at MD-109 51 53 35 None 5 mph 11 mph NE 57 - 58 3/30/2017 6:25:00 PM
I-495 at American Legion Bridge 54 51 36 None 5 mph 9 mph E 62 - 64 3/30/2017 6:25:00 PM
I-68 at MD-219 45 78 39 None 17 mph 27 mph SE 51 - 54 3/30/2017 6:25:00 PM
I-68 at Savage Mt - - - No Data Available - - No Data Available -
I-68 at Sideling Hill 48 62 36 None 11 mph 16 mph S 57 - 57 3/30/2017 6:25:00 PM
I-68 at WV Line 52 61 39 None 15 mph 25 mph E 58 - 59 3/30/2017 6:25:00 PM
I-695 at I-83 49 51 31 None 5 mph 12 mph SE 52 - 54 3/30/2017 6:20:00 PM
I-70 at Fred-Wash Co. 47 59 33 None 4 mph 10 mph SE 53 - 53 3/30/2017 6:25:00 PM
I-70 at I-695 47 60 34 None 5 mph 14 mph SE 51 - 59 3/30/2017 6:25:00 PM
I-70 at I-81 51 48 32 None 10 mph 16 mph S 59 - 59 3/30/2017 6:25:00 PM
I-70 at MD-27 47 59 34 None 6 mph 13 mph SE 54 - 56 3/30/2017 6:25:00 PM
I-70 at MD-32 48 59 34 None Calm 9 mph S 54 - 58 3/30/2017 6:20:00 PM
I-83 at MD-137 46 58 32 None Calm 6 mph SE 54 - 54 3/30/2017 6:25:00 PM
I-95 at I-695 NE 48 51 31 None Calm 4 mph E 51 - 55 3/30/2017 6:25:00 PM
I-95 at Patuxent River 51 54 35 None 5 mph 12 mph SW 58 - 60 3/30/2017 6:25:00 PM
I-95 at Tydings Bridge 48 54 32 None 4 mph 10 mph E 52 - 53 3/30/2017 6:25:00 PM
I-95/495 at I-295 54 55 38 None 6 mph 14 mph SE 57 - 60 3/30/2017 6:25:00 PM
I-97 at MD-100 49 56 35 None 8 mph 13 mph SE 57 - 58 3/30/2017 6:20:00 PM
I-97 at MD-32 49 57 35 None 5 mph 12 mph N 55 - 57 3/30/2017 6:25:00 PM
MD 20 at MD 21 49 53 33 None Calm 7 mph SE 60 - 60 3/30/2017 6:25:00 PM
MD 231 at Patuxent River 49 72 41 None 12 mph 18 mph SE 56 - 59 3/30/2017 6:25:00 PM
MD 260 at Cox Rd 49 72 40 None Calm 10 mph S 62 - 62 3/30/2017 6:25:00 PM
MD-135 at Salt Dome 46 78 40 None 9 mph 21 mph S 64 - 64 3/30/2017 6:25:00 PM
MD-140 at MD-97 46 60 33 None 6 mph 21 mph SE 53 - 53 3/30/2017 6:25:00 PM
MD-200 EB at Bonifant Rd 50 58 36 None Calm Calm S 57 - 57 3/30/2017 6:25:00 PM
MD-200 WB at Muncaster Mill Rd 50 56 35 None 6 mph 10 mph SE 57 - 59 3/30/2017 6:25:00 PM
MD-213 at Sassafras River 47 61 34 None 4 mph 11 mph E 56 - 56 3/30/2017 6:25:00 PM
MD-24 at Rock St Park 47 52 31 None Calm 4 mph SW 54 - 54 3/30/2017 6:25:00 PM
MD-30 at PA Line 44 64 33 None 4 mph 9 mph SE 54 - 54 3/30/2017 6:25:00 PM
MD-301 at MD-305 47 61 35 None 9 mph 14 mph SE 58 - 60 3/30/2017 6:25:00 PM
MD-33 at Knapps Narrows Drawbridge 50 70 41 None 7 mph 13 mph S 65 - 65 3/30/2017 6:25:00 PM
MD-344 at MD-224 52 66 41 None Calm 6 mph SE 66 - 66 3/30/2017 6:25:00 PM
MD-4 at Patuxent River 49 72 41 None - - No Data Available 56 - 60 3/30/2017 6:25:00 PM
MD-404 at Choptank River 48 61 35 None 7 mph 15 mph E 56 - 60 3/30/2017 6:25:00 PM
MD-43 at MD-150 49 52 32 None 4 mph 8 mph SE 54 - 56 3/30/2017 6:25:00 PM
MD-51 at Oldtown Salt Dome 52 56 37 None 12 mph 17 mph E 62 - 62 3/30/2017 6:25:00 PM
MD-64 at MD-418 47 56 33 None 4 mph 10 mph E 58 - 59 3/30/2017 6:20:00 PM
US-1 at Baltimore / Harford Co. Line 48 51 30 None Calm 6 mph SE 53 - 53 3/30/2017 6:25:00 PM
US-1 at Conowingo Dam 48 54 32 None Calm 8 mph S 55 - 55 3/30/2017 6:25:00 PM
US-13 at US-113 45 67 34 None 8 mph 12 mph E 65 - 66 3/30/2017 6:25:00 PM
US-13 at US-50 - - - No Data Available - - No Data Available -
US-15 at MD-140 46 56 32 None 5 mph 10 mph E 54 - 57 3/30/2017 6:25:00 PM
US-301 at MD-5 51 64 39 None 7 mph 12 mph E 62 - 63 3/30/2017 6:25:00 PM
US-301 at Potomac 51 72 42 None 11 mph 19 mph SE 56 - 60 3/30/2017 6:20:00 PM
US-301 on HWN Bridge 49 71 40 None 15 mph 17 mph E 55 - 55 3/30/2017 6:24:00 PM
US-340 at MD-180 51 48 32 None 10 mph 17 mph SE 58 - 58 3/30/2017 6:25:00 PM
US-50 at Choptank 51 74 43 None 4 mph 10 mph SE 58 - 61 3/30/2017 6:25:00 PM
US-50 at I-95 52 57 37 None Calm 6 mph SE 57 - 61 3/30/2017 6:25:00 PM
US-50 at MD-2 49 63 37 None Calm 9 mph SE 55 - 57 3/30/2017 6:20:00 PM
US-50 at MD-331 50 64 38 None 9 mph 14 mph S 61 - 63 3/30/2017 6:25:00 PM
US-50 at OC Drawbridge 44 72 35 None 11 mph 15 mph SE 58 - 58 3/30/2017 6:25:00 PM
US-50 at Table Rock Rd 50 78 44 None 11 mph 15 mph E 65 - 65 3/30/2017 6:25:00 PM
US-50 Kent Narrow Bridge 50 65 38 None Calm 6 mph SE 55 - 57 3/30/2017 6:25:00 PM
WPL Pier 31 48 62 36 None 4 mph 8 mph S 53 - 53 3/30/2017 6:25:00 PM
Location Air RH Dwp Precip Type Wind Speed Wind Gust Direction Pavement Temperature Date/Time